createdAt,value
2023-06-29T00:00:07.481Z,7.38
2023-06-29T00:02:56.228Z,8.30
2023-06-29T00:05:24.453Z,11.48
2023-06-29T00:07:52.635Z,8.88
2023-06-29T00:10:20.686Z,7.85
2023-06-29T00:12:49.086Z,6.97
2023-06-29T00:15:17.051Z,8.88
2023-06-29T00:17:48.944Z,7.55
2023-06-29T00:20:17.378Z,8.13
2023-06-29T00:22:49.414Z,10.15
2023-06-29T00:25:18.774Z,6.63
2023-06-29T00:27:48.232Z,10.85
2023-06-29T00:30:17.163Z,9.27
2023-06-29T00:32:45.651Z,11.52
2023-06-29T00:35:14.943Z,9.35
2023-06-29T00:37:45.895Z,9.20
2023-06-29T00:40:14.462Z,8.75
2023-06-29T00:42:43.941Z,8.82
2023-06-29T00:45:12.305Z,8.10
2023-06-29T00:47:43.568Z,8.73
2023-06-29T00:50:15.597Z,8.32
2023-06-29T00:52:47.470Z,11.15
2023-06-29T00:55:16.691Z,7.28
2023-06-29T01:00:35.513Z,7.88
2023-06-29T01:03:10.918Z,9.52
2023-06-29T01:05:43.525Z,9.40
2023-06-29T01:08:23.900Z,7.70
2023-06-29T01:10:52.569Z,7.40
2023-06-29T01:13:22.771Z,7.97
2023-06-29T01:15:53.594Z,4.00
2023-06-29T01:18:25.420Z,5.60
2023-06-29T01:20:54.905Z,4.35
2023-06-29T01:23:35.985Z,4.90
2023-06-29T01:26:07.193Z,2.80
2023-06-29T01:28:39.784Z,3.47
2023-06-29T01:33:42.222Z,2.40
2023-06-29T01:36:39.442Z,4.20
2023-06-29T01:39:13.955Z,3.33
2023-06-29T01:41:44.202Z,3.80
2023-06-29T01:44:18.877Z,4.38
2023-06-29T01:46:49.253Z,2.22
2023-06-29T01:49:17.612Z,4.90
2023-06-29T01:51:48.806Z,3.58
2023-06-29T01:54:17.250Z,3.72
2023-06-29T01:56:45.105Z,2.90
2023-06-29T01:59:13.873Z,4.38
2023-06-29T02:01:41.978Z,3.47
2023-06-29T02:04:10.520Z,3.20
2023-06-29T02:06:38.447Z,3.10
2023-06-29T02:09:07.323Z,6.40
2023-06-29T02:11:39.708Z,3.28
2023-06-29T02:14:08.272Z,6.28
2023-06-29T02:16:36.469Z,3.70
2023-06-29T02:19:05.019Z,6.25
2023-06-29T02:21:34.801Z,4.55
2023-06-29T02:24:05.466Z,5.65
2023-06-29T02:26:33.583Z,4.13
2023-06-29T02:29:01.962Z,5.13
2023-06-29T02:31:29.929Z,5.28
2023-06-29T02:34:00.744Z,5.45
2023-06-29T02:36:29.569Z,4.43
2023-06-29T02:38:58.202Z,8.02
2023-06-29T02:41:26.572Z,3.55
2023-06-29T02:43:55.061Z,3.28
2023-06-29T02:46:23.309Z,5.38
2023-06-29T02:48:52.245Z,2.80
2023-06-29T02:51:20.612Z,5.55
2023-06-29T02:53:49.052Z,4.97
2023-06-29T02:56:17.266Z,5.00
2023-06-29T02:58:45.595Z,4.85
2023-06-29T03:01:21.181Z,8.73
2023-06-29T03:03:49.850Z,6.07
2023-06-29T03:06:21.672Z,4.75
2023-06-29T03:08:50.005Z,4.38
2023-06-29T03:11:18.338Z,7.50
2023-06-29T03:13:47.959Z,3.95
2023-06-29T03:16:16.321Z,4.50
2023-06-29T03:18:44.745Z,5.47
2023-06-29T03:21:18.936Z,3.75
2023-06-29T03:23:48.277Z,6.80
2023-06-29T03:26:16.220Z,6.03
2023-06-29T03:28:45.768Z,8.70
2023-06-29T03:31:13.868Z,6.22
2023-06-29T03:33:43.276Z,3.30
2023-06-29T03:36:12.914Z,5.45
2023-06-29T03:38:42.440Z,3.53
2023-06-29T03:41:10.484Z,6.55
2023-06-29T03:43:39.016Z,3.90
2023-06-29T03:46:06.992Z,4.55
2023-06-29T03:48:35.473Z,5.47
2023-06-29T03:51:04.967Z,6.05
2023-06-29T03:53:33.376Z,4.32
2023-06-29T03:56:01.372Z,6.05
2023-06-29T03:58:29.709Z,6.68
2023-06-29T04:00:57.961Z,6.53
2023-06-29T04:03:26.476Z,4.13
2023-06-29T04:05:54.836Z,7.78
2023-06-29T04:08:23.248Z,3.97
2023-06-29T04:10:52.232Z,4.22
2023-06-29T04:13:20.827Z,6.20
2023-06-29T04:15:48.860Z,4.50
2023-06-29T04:18:17.111Z,8.18
2023-06-29T04:20:45.740Z,3.72
2023-06-29T04:23:16.440Z,8.68
2023-06-29T04:25:45.638Z,4.43
2023-06-29T04:28:14.242Z,4.38
2023-06-29T04:30:43.017Z,4.10
2023-06-29T04:33:12.113Z,8.65
2023-06-29T04:35:46.078Z,6.13
2023-06-29T04:38:15.047Z,2.60
2023-06-29T04:40:43.914Z,3.13
2023-06-29T04:43:14.118Z,5.20
2023-06-29T04:45:42.667Z,5.05
2023-06-29T04:48:11.895Z,4.07
2023-06-29T04:50:39.772Z,3.55
2023-06-29T04:53:11.440Z,4.68
2023-06-29T04:55:39.868Z,4.82
2023-06-29T04:58:08.517Z,6.53
2023-06-29T05:00:36.805Z,8.23
2023-06-29T05:03:05.277Z,5.28
2023-06-29T05:05:33.392Z,6.65
2023-06-29T05:08:01.720Z,5.18
2023-06-29T05:10:30.055Z,3.30
2023-06-29T05:12:58.293Z,4.00
2023-06-29T05:15:26.426Z,8.52
2023-06-29T05:17:54.937Z,4.55
2023-06-29T05:20:23.882Z,5.28
2023-06-29T05:22:54.992Z,4.00
2023-06-29T05:25:24.391Z,4.18
2023-06-29T05:27:52.845Z,9.50
2023-06-29T05:30:20.932Z,5.15
2023-06-29T05:32:49.485Z,4.07
2023-06-29T05:35:17.414Z,4.70
2023-06-29T05:37:47.815Z,6.55
2023-06-29T05:40:16.742Z,4.80
2023-06-29T05:42:45.531Z,4.18
2023-06-29T05:45:14.302Z,5.50
2023-06-29T05:47:42.897Z,5.35
2023-06-29T05:50:11.217Z,4.03
2023-06-29T05:52:39.848Z,4.57
2023-06-29T05:55:08.041Z,4.25
2023-06-29T05:57:36.026Z,5.50
2023-06-29T06:00:09.632Z,3.47
2023-06-29T06:02:38.403Z,8.95
2023-06-29T06:05:11.220Z,8.05
2023-06-29T06:07:39.704Z,3.88
2023-06-29T06:10:08.524Z,4.93
2023-06-29T06:12:36.556Z,5.18
2023-06-29T06:15:07.372Z,5.30
2023-06-29T06:17:35.579Z,6.95
2023-06-29T06:20:06.679Z,5.70
2023-06-29T06:22:34.821Z,6.22
2023-06-29T06:25:03.053Z,8.90
2023-06-29T06:27:32.113Z,9.68
2023-06-29T06:30:01.282Z,6.50
2023-06-29T06:32:32.206Z,8.70
2023-06-29T06:35:00.597Z,6.00
2023-06-29T06:37:28.579Z,5.63
2023-06-29T06:39:56.946Z,7.00
2023-06-29T06:42:27.964Z,5.43
2023-06-29T06:44:57.334Z,6.47
2023-06-29T06:47:25.311Z,7.80
2023-06-29T06:49:54.069Z,8.23
2023-06-29T06:52:22.436Z,8.30
2023-06-29T06:54:50.879Z,4.47
2023-06-29T06:57:20.518Z,4.65
2023-06-29T06:59:48.905Z,7.60
2023-06-29T07:02:17.328Z,7.03
2023-06-29T07:04:46.245Z,8.13
2023-06-29T07:07:14.803Z,8.45
2023-06-29T07:09:43.866Z,6.80
2023-06-29T07:12:12.461Z,5.85
2023-06-29T07:14:40.863Z,6.20
2023-06-29T07:17:08.830Z,11.43
2023-06-29T07:24:40.059Z,7.32
2023-06-29T07:27:08.168Z,7.43
2023-06-29T07:29:36.395Z,7.03
2023-06-29T07:32:04.594Z,6.43
2023-06-29T07:34:33.458Z,8.57
2023-06-29T07:37:01.741Z,10.55
2023-06-29T07:39:30.355Z,5.43
2023-06-29T07:41:58.251Z,9.10
2023-06-29T07:44:29.352Z,4.55
2023-06-29T07:46:57.554Z,11.75
2023-06-29T07:49:25.825Z,7.00
2023-06-29T07:51:53.710Z,8.05
2023-06-29T07:54:22.085Z,6.07
2023-06-29T07:59:21.399Z,8.45
2023-06-29T08:01:50.519Z,7.13
2023-06-29T08:06:45.828Z,8.45
2023-06-29T08:07:10.114Z,9.07
2023-06-29T08:09:41.066Z,9.63
2023-06-29T08:12:09.335Z,9.77
2023-06-29T08:14:39.438Z,11.02
2023-06-29T08:17:07.958Z,9.05
2023-06-29T08:19:36.582Z,12.90
2023-06-29T08:22:05.523Z,12.05
2023-06-29T08:24:34.096Z,10.57
2023-06-29T08:27:02.140Z,11.77
2023-06-29T08:29:30.532Z,10.05
2023-06-29T08:31:58.678Z,16.80
2023-06-29T08:34:27.104Z,13.40
2023-06-29T08:36:55.196Z,11.00
2023-06-29T08:39:42.200Z,10.10
2023-06-29T08:42:10.414Z,12.27
2023-06-29T08:44:39.207Z,11.02
2023-06-29T08:47:08.220Z,12.30
2023-06-29T08:49:37.110Z,9.10
2023-06-29T08:52:06.490Z,10.73
2023-06-29T08:54:36.567Z,12.77
2023-06-29T08:57:06.519Z,16.90
2023-06-29T08:59:35.820Z,11.02
2023-06-29T09:02:06.502Z,12.02
2023-06-29T09:04:36.057Z,11.50
2023-06-29T09:07:07.706Z,12.10
2023-06-29T09:09:36.208Z,12.75
2023-06-29T09:12:07.759Z,9.43
2023-06-29T09:14:39.803Z,10.75
2023-06-29T09:17:14.023Z,12.25
2023-06-29T09:19:52.104Z,8.57
2023-06-29T09:22:21.138Z,12.18
2023-06-29T09:25:01.859Z,10.27
2023-06-29T09:27:35.198Z,10.48
2023-06-29T09:30:05.986Z,12.48
2023-06-29T09:32:39.972Z,10.70
2023-06-29T09:35:10.181Z,17.50
2023-06-29T09:37:38.485Z,11.90
2023-06-29T09:40:19.667Z,15.40
2023-06-29T09:42:47.859Z,14.40
2023-06-29T09:45:16.768Z,10.77
2023-06-29T09:50:25.530Z,12.02
2023-06-29T09:52:55.627Z,14.82
2023-06-29T09:55:31.548Z,8.32
2023-06-29T09:58:00.293Z,15.05
2023-06-29T10:00:29.387Z,10.30
2023-06-29T10:02:57.737Z,9.93
2023-06-29T10:05:26.363Z,10.52
2023-06-29T10:07:54.660Z,11.40
2023-06-29T10:10:24.981Z,12.18
2023-06-29T10:12:56.950Z,10.93
2023-06-29T10:16:10.135Z,10.93
2023-06-29T10:19:29.828Z,9.85
2023-06-29T10:22:06.902Z,12.90
2023-06-29T10:24:48.214Z,11.93
2023-06-29T10:27:21.322Z,12.70
2023-06-29T10:29:53.614Z,11.27
2023-06-29T10:32:37.037Z,11.48
2023-06-29T10:35:07.219Z,15.35
2023-06-29T10:37:42.850Z,12.50
2023-06-29T10:40:20.939Z,13.10
2023-06-29T10:42:56.747Z,13.68
2023-06-29T10:45:24.865Z,13.75
2023-06-29T10:47:59.308Z,11.43
2023-06-29T10:50:31.850Z,10.57
2023-06-29T10:53:01.605Z,10.30
2023-06-29T10:55:40.066Z,9.55
2023-06-29T10:58:15.611Z,15.20
2023-06-29T11:00:44.282Z,12.85
2023-06-29T11:03:13.979Z,13.60
2023-06-29T11:05:42.464Z,13.77
2023-06-29T11:08:10.983Z,11.10
2023-06-29T11:10:39.110Z,16.48
2023-06-29T11:13:11.527Z,12.98
2023-06-29T11:15:40.331Z,14.07
2023-06-29T11:18:10.533Z,13.75
2023-06-29T11:20:40.888Z,20.30
2023-06-29T11:23:09.593Z,14.85
2023-06-29T11:25:40.436Z,14.20
2023-06-29T11:28:09.244Z,13.27
2023-06-29T11:30:41.258Z,10.90
2023-06-29T11:36:02.319Z,15.48
2023-06-29T11:38:31.120Z,12.98
2023-06-29T11:41:06.835Z,16.40
2023-06-29T11:43:35.445Z,14.05
2023-06-29T11:46:04.175Z,12.55
2023-06-29T11:48:32.617Z,12.77
2023-06-29T11:51:01.629Z,12.73
2023-06-29T11:53:30.808Z,14.50
2023-06-29T11:55:59.281Z,14.43
2023-06-29T11:58:35.397Z,14.85
2023-06-29T12:01:04.041Z,14.65
2023-06-29T12:03:32.495Z,18.80
2023-06-29T12:06:02.643Z,13.98
2023-06-29T12:08:41.055Z,18.25
2023-06-29T12:11:22.679Z,16.67
2023-06-29T12:14:02.340Z,12.88
2023-06-29T12:19:11.569Z,11.93
2023-06-29T12:21:40.752Z,13.68
2023-06-29T12:24:09.914Z,15.00
2023-06-29T12:26:38.059Z,14.38
2023-06-29T12:29:06.647Z,16.00
2023-06-29T12:31:35.308Z,13.95
2023-06-29T12:34:03.875Z,12.88
2023-06-29T12:36:31.944Z,13.20
2023-06-29T12:39:00.424Z,13.27
2023-06-29T12:41:29.664Z,16.27
2023-06-29T12:43:58.063Z,13.60
2023-06-29T12:46:28.714Z,11.50
2023-06-29T12:48:57.257Z,11.38
2023-06-29T12:51:25.736Z,14.30
2023-06-29T12:53:54.868Z,12.40
2023-06-29T12:56:23.004Z,8.98
2023-06-29T12:58:51.606Z,14.00
2023-06-29T13:01:19.663Z,13.02
2023-06-29T13:03:48.269Z,11.18
2023-06-29T13:06:16.544Z,10.65
2023-06-29T13:08:44.984Z,11.80
2023-06-29T13:11:13.612Z,13.85
2023-06-29T13:13:42.305Z,12.40
2023-06-29T13:16:10.793Z,12.35
2023-06-29T13:18:39.555Z,12.80
2023-06-29T13:21:07.693Z,11.95
2023-06-29T13:23:37.024Z,10.13
2023-06-29T13:26:05.200Z,9.93
2023-06-29T13:28:34.406Z,11.93
2023-06-29T13:31:02.701Z,19.45
2023-06-29T13:33:31.258Z,11.82
2023-06-29T13:36:01.350Z,14.52
2023-06-29T13:38:29.952Z,13.60
2023-06-29T13:40:58.029Z,10.25
2023-06-29T13:43:26.401Z,10.25
2023-06-29T13:45:55.578Z,11.23
2023-06-29T13:48:24.010Z,14.23
2023-06-29T13:50:53.341Z,10.80
2023-06-29T13:53:25.592Z,16.42
2023-06-29T13:55:53.842Z,12.82
2023-06-29T13:58:29.083Z,11.25
2023-06-29T14:00:57.316Z,12.27
2023-06-29T14:03:25.952Z,9.98
2023-06-29T14:05:53.989Z,10.65
2023-06-29T14:08:23.667Z,10.30
2023-06-29T14:10:53.659Z,12.32
2023-06-29T14:13:21.896Z,11.00
2023-06-29T14:15:49.864Z,11.75
2023-06-29T14:18:18.377Z,9.65
2023-06-29T14:20:46.841Z,14.02
2023-06-29T14:23:15.110Z,13.27
2023-06-29T14:25:43.535Z,11.02
2023-06-29T14:28:12.386Z,13.98
2023-06-29T14:30:40.275Z,12.43
2023-06-29T14:33:19.587Z,15.20
2023-06-29T14:35:52.487Z,11.20
2023-06-29T14:38:20.939Z,15.15
2023-06-29T14:40:50.174Z,13.55
2023-06-29T14:43:19.444Z,15.43
2023-06-29T14:45:47.904Z,9.65
2023-06-29T14:48:17.566Z,11.30
2023-06-29T14:50:46.650Z,12.20
2023-06-29T14:53:16.784Z,15.35
2023-06-29T14:55:46.486Z,13.88
2023-06-29T14:58:16.358Z,13.73
2023-06-29T15:00:44.690Z,13.13
2023-06-29T15:03:13.303Z,11.77
2023-06-29T15:05:41.733Z,13.05
2023-06-29T15:08:09.978Z,10.60
2023-06-29T15:10:37.801Z,10.13
2023-06-29T15:13:06.094Z,11.30
2023-06-29T15:15:34.054Z,14.27
2023-06-29T15:18:05.587Z,16.58
2023-06-29T15:20:33.676Z,12.60
2023-06-29T15:23:04.931Z,11.52
2023-06-29T15:25:33.222Z,13.18
2023-06-29T15:28:02.801Z,12.57
2023-06-29T15:30:47.181Z,10.25
2023-06-29T15:33:20.553Z,14.05
2023-06-29T15:35:52.247Z,10.10
2023-06-29T15:38:21.613Z,15.18
2023-06-29T15:40:51.355Z,15.63
2023-06-29T15:43:19.808Z,11.95
2023-06-29T15:45:48.021Z,9.63
2023-06-29T15:48:16.797Z,10.75
2023-06-29T15:50:45.357Z,10.57
2023-06-29T15:53:14.629Z,10.52
2023-06-29T15:55:42.939Z,11.63
2023-06-29T15:58:11.404Z,14.02
2023-06-29T16:00:40.077Z,11.05
2023-06-29T16:03:08.614Z,14.63
2023-06-29T16:05:36.845Z,13.82
2023-06-29T16:08:05.582Z,14.65
2023-06-29T16:10:34.101Z,9.43
2023-06-29T16:13:02.306Z,12.27
2023-06-29T16:15:30.851Z,11.93
2023-06-29T16:17:59.491Z,14.27
2023-06-29T16:20:28.042Z,13.73
2023-06-29T16:23:00.108Z,14.00
2023-06-29T16:25:28.287Z,13.00
2023-06-29T16:27:56.758Z,10.10
2023-06-29T16:30:25.610Z,9.80
2023-06-29T16:32:54.318Z,12.30
2023-06-29T16:35:22.323Z,8.25
2023-06-29T16:37:50.736Z,11.38
2023-06-29T16:40:19.374Z,14.80
2023-06-29T16:42:48.026Z,12.55
2023-06-29T16:45:16.363Z,13.93
2023-06-29T16:47:44.831Z,10.48
2023-06-29T16:50:12.943Z,12.10
2023-06-29T16:52:41.294Z,10.88
2023-06-29T16:55:09.887Z,10.35
2023-06-29T16:57:38.471Z,12.75
2023-06-29T17:00:08.176Z,10.88
2023-06-29T17:02:36.731Z,13.88
2023-06-29T17:05:05.324Z,10.70
2023-06-29T17:07:33.829Z,10.00
2023-06-29T17:10:02.938Z,10.40
2023-06-29T17:12:34.181Z,8.25
2023-06-29T17:15:02.237Z,11.00
2023-06-29T17:17:34.577Z,15.60
2023-06-29T17:20:04.210Z,11.35
2023-06-29T17:22:34.467Z,10.40
2023-06-29T17:25:04.485Z,15.32
2023-06-29T17:27:34.397Z,9.88
2023-06-29T17:30:02.803Z,10.25
2023-06-29T17:32:35.486Z,10.93
2023-06-29T17:35:03.598Z,10.05
2023-06-29T17:37:32.876Z,10.73
2023-06-29T17:40:00.925Z,8.60
2023-06-29T17:42:30.034Z,12.82
2023-06-29T17:45:06.698Z,10.65
2023-06-29T17:47:36.299Z,7.63
2023-06-29T17:50:07.043Z,10.85
2023-06-29T17:52:36.941Z,9.98
2023-06-29T17:55:06.214Z,8.68
2023-06-29T17:57:35.697Z,7.55
2023-06-29T18:00:06.873Z,27.40
2023-06-29T18:02:37.739Z,10.40
2023-06-29T18:05:07.415Z,10.13
2023-06-29T18:07:36.203Z,10.55
2023-06-29T18:10:09.406Z,11.13
2023-06-29T18:12:39.361Z,9.02
2023-06-29T18:15:08.206Z,5.93
2023-06-29T18:17:39.201Z,10.10
2023-06-29T18:20:08.131Z,7.47
2023-06-29T18:22:37.019Z,10.63
2023-06-29T18:25:05.733Z,9.63
2023-06-29T18:27:35.254Z,12.00
2023-06-29T18:30:03.297Z,10.85
2023-06-29T18:32:34.803Z,9.57
2023-06-29T18:35:05.332Z,13.30
2023-06-29T18:37:34.239Z,10.93
2023-06-29T18:40:02.282Z,9.98
2023-06-29T18:42:32.958Z,14.48
2023-06-29T18:45:02.058Z,5.22
2023-06-29T18:47:33.838Z,7.72
2023-06-29T18:50:05.167Z,6.72
2023-06-29T18:52:34.062Z,5.70
2023-06-29T18:55:02.567Z,5.00
2023-06-29T18:57:34.796Z,5.20
2023-06-29T19:00:02.873Z,6.20
2023-06-29T19:02:39.057Z,6.70
2023-06-29T19:05:07.457Z,6.70
2023-06-29T19:07:59.916Z,3.85
2023-06-29T19:10:30.528Z,3.88
2023-06-29T19:12:59.050Z,5.47
2023-06-29T19:15:29.653Z,3.10
2023-06-29T19:18:00.175Z,3.90
2023-06-29T19:20:28.363Z,4.68
2023-06-29T19:22:57.096Z,5.82
2023-06-29T19:25:25.377Z,4.90
2023-06-29T19:27:54.369Z,7.40
2023-06-29T19:30:23.376Z,6.15
2023-06-29T19:32:51.736Z,3.42
2023-06-29T19:35:20.858Z,4.30
2023-06-29T19:37:52.637Z,3.70
2023-06-29T19:40:21.251Z,2.85
2023-06-29T19:42:51.074Z,4.63
2023-06-29T19:45:20.351Z,3.90
2023-06-29T19:47:49.187Z,5.88
2023-06-29T19:50:18.008Z,4.10
2023-06-29T19:52:47.680Z,5.85
2023-06-29T19:55:15.695Z,3.80
2023-06-29T19:57:44.027Z,4.95
2023-06-29T20:00:13.254Z,6.53
2023-06-29T20:02:54.121Z,3.88
2023-06-29T20:05:24.717Z,4.35
2023-06-29T20:07:53.690Z,3.53
2023-06-29T20:10:22.184Z,5.88
2023-06-29T20:12:50.605Z,4.07
2023-06-29T20:15:18.803Z,2.97
2023-06-29T20:17:47.218Z,4.00
2023-06-29T20:20:18.550Z,6.50
2023-06-29T20:22:48.338Z,6.43
2023-06-29T20:25:16.302Z,4.80
2023-06-29T20:27:45.987Z,4.32
2023-06-29T20:30:14.174Z,8.15
2023-06-29T20:32:42.513Z,3.83
2023-06-29T20:35:10.642Z,4.47
2023-06-29T20:37:39.374Z,3.95
2023-06-29T20:40:08.106Z,4.70
2023-06-29T20:42:39.315Z,4.57
2023-06-29T20:45:12.799Z,6.07
2023-06-29T20:47:42.662Z,6.70
2023-06-29T20:50:11.531Z,7.57
2023-06-29T20:52:40.775Z,4.32
2023-06-29T20:55:10.906Z,5.90
2023-06-29T20:57:39.810Z,5.18
2023-06-29T21:00:11.315Z,4.45
2023-06-29T21:02:41.111Z,4.60
2023-06-29T21:05:10.516Z,7.85
2023-06-29T21:07:39.389Z,9.80
2023-06-29T21:10:08.761Z,8.98
2023-06-29T21:12:38.729Z,6.25
2023-06-29T21:15:08.738Z,7.82
2023-06-29T21:17:38.544Z,8.43
2023-06-29T21:20:09.824Z,5.13
2023-06-29T21:22:41.534Z,5.10
2023-06-29T21:25:11.822Z,5.57
2023-06-29T21:27:42.210Z,6.78
2023-06-29T21:30:13.808Z,6.13
2023-06-29T21:32:43.274Z,6.43
2023-06-29T21:35:12.792Z,7.97
2023-06-29T21:37:42.316Z,6.82
2023-06-29T21:40:12.003Z,6.63
2023-06-29T21:42:40.429Z,7.55
2023-06-29T21:45:08.877Z,5.85
2023-06-29T21:47:37.292Z,5.00
2023-06-29T21:50:05.821Z,6.50
2023-06-29T21:52:34.435Z,6.50
2023-06-29T21:55:02.798Z,5.30
2023-06-29T21:57:33.066Z,6.80
2023-06-29T22:00:00.954Z,7.82
2023-06-29T22:02:32.591Z,6.32
2023-06-29T22:05:00.471Z,6.82
2023-06-29T22:07:29.157Z,5.75
2023-06-29T22:09:57.117Z,5.53
2023-06-29T22:12:26.561Z,7.35
2023-06-29T22:14:55.226Z,5.20
2023-06-29T22:17:24.187Z,6.32
2023-06-29T22:20:18.417Z,6.03
2023-06-29T22:22:47.276Z,7.38
2023-06-29T22:25:15.254Z,7.10
2023-06-29T22:27:43.537Z,5.80
2023-06-29T22:30:11.869Z,5.38
2023-06-29T22:32:41.580Z,6.50
2023-06-29T22:35:10.163Z,12.73
2023-06-29T22:37:39.045Z,6.32
2023-06-29T22:40:07.810Z,8.02
2023-06-29T22:42:36.126Z,6.28
2023-06-29T22:45:04.322Z,6.28
2023-06-29T22:47:33.577Z,7.15
2023-06-29T22:50:02.179Z,5.70
2023-06-29T22:52:32.552Z,5.45
2023-06-29T22:55:00.538Z,5.60
2023-06-29T22:57:28.913Z,6.95
2023-06-29T22:59:57.089Z,6.82
2023-06-29T23:02:25.844Z,6.43
2023-06-29T23:04:54.438Z,7.53
2023-06-29T23:07:23.712Z,6.45
2023-06-29T23:09:53.256Z,5.80
2023-06-29T23:12:22.519Z,5.70
2023-06-29T23:14:52.755Z,6.78
2023-06-29T23:17:23.864Z,6.95
2023-06-29T23:19:52.252Z,8.38
2023-06-29T23:22:25.649Z,8.10
2023-06-29T23:24:54.257Z,6.93
2023-06-29T23:27:22.814Z,7.40
2023-06-29T23:29:54.338Z,6.85
2023-06-29T23:32:22.741Z,5.35
2023-06-29T23:34:51.405Z,7.32
2023-06-29T23:37:19.755Z,5.55
2023-06-29T23:39:47.641Z,7.40
2023-06-29T23:42:15.974Z,7.70
2023-06-29T23:44:44.208Z,6.15
2023-06-29T23:47:14.250Z,6.22
2023-06-29T23:49:43.366Z,7.38
2023-06-29T23:52:11.862Z,5.72
2023-06-29T23:54:40.084Z,6.00
2023-06-29T23:57:08.395Z,6.05
2023-06-29T23:59:36.387Z,6.55
